createdAt,value
2023-02-27T00:04:14.934Z,12.90
2023-02-27T00:09:18.052Z,12.40
2023-02-27T00:14:21.157Z,11.40
2023-02-27T00:19:24.157Z,13.80
2023-02-27T00:24:27.258Z,14.70
2023-02-27T00:29:30.360Z,12.60
2023-02-27T00:39:36.776Z,9.00
2023-02-27T00:49:44.155Z,10.20
2023-02-27T00:54:47.222Z,16.30
2023-02-27T00:59:50.322Z,10.70
2023-02-27T01:04:53.337Z,11.20
2023-02-27T01:09:56.639Z,10.40
2023-02-27T01:20:04.092Z,5.30
2023-02-27T01:25:08.199Z,6.70
2023-02-27T01:30:12.848Z,4.60
2023-02-27T01:35:16.373Z,5.90
2023-02-27T01:40:19.833Z,3.30
2023-02-27T01:45:35.875Z,4.60
2023-02-27T01:50:45.855Z,5.30
2023-02-27T01:55:49.988Z,4.70
2023-02-27T02:00:53.668Z,3.20
2023-02-27T02:05:58.680Z,5.50
2023-02-27T02:11:03.618Z,4.70
2023-02-27T02:16:38.167Z,3.80
2023-02-27T02:21:53.435Z,3.50
2023-02-27T02:27:21.118Z,3.70
2023-02-27T02:32:43.172Z,5.90
2023-02-27T02:38:24.577Z,2.80
2023-02-27T02:43:46.730Z,5.20
2023-02-27T02:49:14.099Z,3.00
2023-02-27T02:54:31.232Z,3.00
2023-02-27T02:59:43.044Z,5.80
2023-02-27T03:04:59.244Z,3.70
2023-02-27T03:10:27.755Z,4.90
2023-02-27T03:15:40.001Z,12.50
2023-02-27T03:20:49.709Z,5.30
2023-02-27T03:25:54.564Z,3.90
2023-02-27T03:31:10.150Z,4.20
2023-02-27T03:36:49.427Z,5.60
2023-02-27T03:42:22.636Z,10.60
2023-02-27T03:47:26.064Z,13.00
2023-02-27T03:52:30.588Z,9.60
2023-02-27T03:57:36.772Z,5.90
2023-02-27T04:02:42.156Z,13.40
2023-02-27T04:07:57.109Z,14.20
2023-02-27T04:13:41.894Z,11.00
2023-02-27T04:19:04.758Z,8.70
2023-02-27T04:24:25.989Z,8.60
2023-02-27T04:29:51.010Z,12.10
2023-02-27T04:34:59.856Z,14.40
2023-02-27T04:40:10.654Z,8.60
2023-02-27T04:45:18.870Z,9.00
2023-02-27T04:50:37.436Z,8.50
2023-02-27T04:55:47.808Z,10.20
2023-02-27T05:00:57.288Z,9.80
2023-02-27T05:06:01.920Z,9.70
2023-02-27T05:11:07.885Z,7.80
2023-02-27T05:16:33.479Z,7.20
2023-02-27T05:21:59.761Z,10.30
2023-02-27T05:27:14.846Z,15.10
2023-02-27T05:32:49.904Z,8.70
2023-02-27T05:38:21.076Z,8.30
2023-02-27T05:43:31.105Z,8.20
2023-02-27T05:48:43.139Z,11.10
2023-02-27T05:53:53.310Z,9.90
2023-02-27T05:59:24.272Z,17.20
2023-02-27T06:04:27.590Z,13.30
2023-02-27T06:14:33.897Z,15.50
2023-02-27T06:19:36.903Z,18.00
2023-02-27T06:24:40.006Z,6.60
2023-02-27T06:29:43.010Z,7.20
2023-02-27T06:34:46.211Z,9.30
2023-02-27T06:39:49.418Z,15.40
2023-02-27T06:44:52.628Z,23.60
2023-02-27T06:54:59.758Z,27.00
2023-02-27T07:00:05.472Z,50.10
2023-02-27T07:05:12.232Z,7.70
2023-02-27T07:10:16.443Z,10.20
2023-02-27T07:15:19.552Z,6.80
2023-02-27T07:20:22.553Z,9.20
2023-02-27T07:25:25.668Z,8.40
2023-02-27T07:30:30.924Z,6.40
2023-02-27T07:35:34.330Z,8.30
2023-02-27T07:40:37.744Z,24.60
2023-02-27T07:45:41.162Z,18.10
2023-02-27T07:50:44.469Z,9.90
2023-02-27T08:05:56.968Z,3.60
2023-02-27T08:16:03.207Z,7.90
2023-02-27T08:31:13.572Z,3.70
2023-02-27T08:36:17.023Z,15.90
2023-02-27T08:46:23.443Z,6.30
2023-02-27T08:56:30.873Z,5.70
2023-02-27T09:01:34.895Z,6.60
2023-02-27T09:06:38.314Z,16.00
2023-02-27T09:11:41.732Z,4.30
2023-02-27T09:16:45.601Z,9.40
2023-02-27T09:21:49.167Z,6.60
2023-02-27T09:26:52.784Z,14.70
2023-02-27T09:31:56.232Z,7.30
2023-02-27T09:37:01.523Z,3.10
2023-02-27T09:42:17.770Z,5.50
2023-02-27T09:47:28.888Z,2.60
2023-02-27T09:52:35.972Z,3.30
2023-02-27T09:57:52.278Z,1.90
2023-02-27T10:03:23.197Z,2.70
2023-02-27T10:08:38.426Z,1.80
2023-02-27T10:13:50.029Z,2.40
2023-02-27T10:18:58.569Z,4.90
2023-02-27T10:24:27.626Z,5.40
2023-02-27T10:29:43.074Z,3.30
2023-02-27T10:34:54.783Z,5.10
2023-02-27T10:40:06.343Z,8.40
2023-02-27T10:45:17.706Z,8.30
2023-02-27T10:50:25.602Z,3.80
2023-02-27T10:55:35.976Z,6.70
2023-02-27T11:00:39.482Z,5.10
2023-02-27T11:05:43.205Z,5.40
2023-02-27T11:10:57.380Z,3.30
2023-02-27T11:16:18.691Z,9.70
2023-02-27T11:21:25.871Z,20.40
2023-02-27T11:26:36.690Z,8.80
2023-02-27T11:31:44.234Z,6.10
2023-02-27T11:36:51.196Z,12.90
2023-02-27T11:41:56.974Z,10.00
2023-02-27T11:47:34.246Z,21.40
2023-02-27T11:52:57.448Z,5.20
2023-02-27T11:58:22.474Z,5.00
2023-02-27T12:03:48.438Z,7.90
2023-02-27T12:08:57.130Z,9.30
2023-02-27T12:14:18.470Z,10.90
2023-02-27T12:19:34.431Z,5.50
2023-02-27T12:24:53.984Z,19.20
2023-02-27T12:30:17.272Z,28.20
2023-02-27T12:35:28.425Z,12.90
2023-02-27T12:40:38.540Z,3.60
2023-02-27T12:45:42.418Z,23.30
2023-02-27T12:50:48.814Z,50.90
2023-02-27T12:56:20.911Z,37.80
2023-02-27T13:01:41.620Z,27.70
2023-02-27T13:07:02.959Z,5.90
2023-02-27T13:12:18.602Z,13.20
2023-02-27T13:17:28.474Z,11.10
2023-02-27T13:22:40.647Z,3.10
2023-02-27T13:27:53.067Z,4.40
2023-02-27T13:33:26.129Z,69.50
2023-02-27T13:38:54.888Z,22.90
2023-02-27T13:44:20.125Z,10.40
2023-02-27T13:49:29.678Z,17.70
2023-02-27T13:54:40.187Z,46.30
2023-02-27T14:00:01.898Z,22.90
2023-02-27T14:05:08.896Z,9.40
2023-02-27T14:10:25.408Z,4.50
2023-02-27T14:15:32.403Z,8.50
2023-02-27T14:20:36.221Z,12.20
2023-02-27T14:26:01.870Z,58.60
2023-02-27T14:31:32.709Z,85.40
2023-02-27T14:36:44.527Z,22.80
2023-02-27T14:42:27.093Z,10.10
2023-02-27T14:47:36.197Z,5.30
2023-02-27T14:52:44.119Z,28.60
2023-02-27T14:58:17.544Z,20.80
2023-02-27T15:03:26.661Z,18.30
2023-02-27T15:08:35.011Z,14.70
2023-02-27T15:13:40.064Z,10.60
2023-02-27T15:18:46.042Z,9.30
2023-02-27T15:24:00.511Z,15.00
2023-02-27T15:29:08.839Z,13.90
2023-02-27T15:34:14.929Z,9.10
2023-02-27T15:39:22.037Z,6.70
2023-02-27T15:44:30.541Z,10.70
2023-02-27T15:49:34.161Z,11.60
2023-02-27T15:54:37.165Z,13.60
2023-02-27T15:59:43.439Z,19.00
2023-02-27T16:04:47.583Z,40.50
2023-02-27T16:09:58.875Z,57.20
2023-02-27T16:15:27.463Z,69.20
2023-02-27T16:20:38.963Z,52.60
2023-02-27T16:25:59.174Z,67.30
2023-02-27T16:31:03.103Z,108.70
2023-02-27T16:36:21.907Z,95.50
2023-02-27T16:41:25.870Z,95.10
2023-02-27T16:46:31.495Z,68.40
2023-02-27T16:51:35.869Z,48.90
2023-02-27T16:56:40.977Z,34.60
2023-02-27T17:01:45.385Z,73.40
2023-02-27T17:06:49.829Z,41.40
2023-02-27T17:11:53.547Z,19.80
2023-02-27T17:16:58.567Z,52.60
2023-02-27T17:22:02.624Z,42.20
2023-02-27T17:27:06.519Z,52.30
2023-02-27T17:32:11.920Z,42.40
2023-02-27T17:37:15.729Z,85.60
2023-02-27T17:42:19.763Z,81.30
2023-02-27T17:47:23.279Z,73.20
2023-02-27T17:52:27.608Z,92.90
2023-02-27T17:57:31.234Z,98.90
2023-02-27T18:02:36.320Z,133.20
2023-02-27T18:07:40.607Z,148.20
2023-02-27T18:12:43.934Z,94.70
2023-02-27T18:17:47.433Z,97.60
2023-02-27T18:27:58.437Z,52.80
2023-02-27T18:33:01.977Z,62.50
2023-02-27T18:38:05.180Z,77.60
2023-02-27T18:43:11.083Z,82.10
2023-02-27T18:48:17.738Z,83.20
2023-02-27T18:53:21.874Z,76.40
2023-02-27T18:58:26.100Z,151.20
2023-02-27T19:03:30.197Z,169.30
2023-02-27T19:08:34.835Z,131.30
2023-02-27T19:13:39.103Z,70.70
2023-02-27T19:18:43.247Z,39.30
2023-02-27T19:23:48.557Z,132.00
2023-02-27T19:28:54.548Z,109.40
2023-02-27T19:33:58.381Z,65.60
2023-02-27T19:39:03.491Z,54.60
2023-02-27T19:44:08.077Z,104.10
2023-02-27T19:49:11.590Z,75.10
2023-02-27T19:54:17.144Z,122.00
2023-02-27T19:59:25.776Z,124.20
2023-02-27T20:04:30.227Z,121.30
2023-02-27T20:09:34.462Z,154.30
2023-02-27T20:14:38.279Z,107.40
2023-02-27T20:19:42.417Z,115.70
2023-02-27T20:24:46.618Z,132.80
2023-02-27T20:29:57.536Z,112.70
2023-02-27T20:35:01.144Z,115.70
2023-02-27T20:40:09.169Z,107.70
2023-02-27T20:45:15.333Z,110.90
2023-02-27T20:50:19.998Z,159.90
2023-02-27T20:55:25.038Z,157.30
2023-02-27T21:00:33.482Z,152.30
2023-02-27T21:05:37.805Z,228.30
2023-02-27T21:10:41.833Z,241.00
2023-02-27T21:15:45.911Z,204.80
2023-02-27T21:20:49.068Z,237.20
2023-02-27T21:25:52.801Z,189.60
2023-02-27T21:30:55.908Z,170.80
2023-02-27T21:41:10.414Z,183.10
2023-02-27T21:46:14.974Z,194.00
2023-02-27T21:51:33.013Z,111.10
2023-02-27T21:56:41.363Z,71.80
2023-02-27T22:01:47.680Z,90.20
2023-02-27T22:06:52.352Z,81.70
2023-02-27T22:11:55.762Z,110.30
2023-02-27T22:16:58.966Z,110.10
2023-02-27T22:27:06.048Z,174.10
2023-02-27T22:32:09.119Z,179.10
2023-02-27T22:37:15.377Z,132.40
2023-02-27T22:42:18.393Z,197.70
2023-02-27T22:47:21.693Z,192.10
2023-02-27T22:52:24.911Z,313.80
2023-02-27T22:57:28.107Z,204.10
2023-02-27T23:07:36.886Z,81.30
2023-02-27T23:17:52.941Z,80.70
2023-02-27T23:23:01.145Z,75.40
2023-02-27T23:33:08.589Z,41.10
2023-02-27T23:38:11.894Z,19.40
2023-02-27T23:43:15.511Z,39.60
2023-02-27T23:48:21.995Z,48.80
2023-02-27T23:53:25.102Z,38.80
